createdAt,value
2018-12-09T00:01:09.253Z,8.43
2018-12-09T00:04:13.148Z,7.60
2018-12-09T00:07:17.167Z,9.20
2018-12-09T00:10:21.109Z,8.20
2018-12-09T00:13:25.776Z,8.20
2018-12-09T00:16:29.971Z,8.30
2018-12-09T00:19:33.952Z,7.60
2018-12-09T00:22:37.853Z,7.60
2018-12-09T00:25:41.872Z,6.60
2018-12-09T00:28:45.881Z,8.10
2018-12-09T00:31:50.620Z,7.57
2018-12-09T00:34:54.662Z,8.07
2018-12-09T00:37:58.571Z,7.07
2018-12-09T00:41:02.521Z,7.30
2018-12-09T00:44:06.808Z,7.03
2018-12-09T00:47:11.103Z,7.37
2018-12-09T00:50:15.314Z,7.73
2018-12-09T00:53:20.323Z,6.10
2018-12-09T00:56:24.254Z,8.30
2018-12-09T00:59:28.200Z,7.73
2018-12-09T01:02:32.565Z,7.30
2018-12-09T01:05:37.900Z,7.90
2018-12-09T01:08:42.403Z,7.40
2018-12-09T01:11:46.718Z,8.37
2018-12-09T01:14:51.019Z,7.10
2018-12-09T01:17:55.358Z,5.70
2018-12-09T01:20:59.849Z,5.97
2018-12-09T01:24:04.419Z,6.60
2018-12-09T01:27:08.814Z,6.20
2018-12-09T01:30:13.111Z,6.27
2018-12-09T01:33:17.521Z,5.60
2018-12-09T01:36:21.821Z,5.77
2018-12-09T01:39:25.894Z,6.07
2018-12-09T01:42:30.115Z,5.73
2018-12-09T01:45:34.498Z,6.00
2018-12-09T01:48:38.702Z,5.43
2018-12-09T01:51:43.028Z,6.23
2018-12-09T01:54:47.352Z,5.90
2018-12-09T01:57:51.619Z,7.93
2018-12-09T02:00:56.079Z,6.97
2018-12-09T02:04:00.443Z,6.43
2018-12-09T02:07:04.945Z,5.00
2018-12-09T02:10:09.295Z,6.10
2018-12-09T02:13:13.556Z,7.47
2018-12-09T02:16:17.981Z,5.80
2018-12-09T02:19:24.533Z,7.73
2018-12-09T02:22:29.077Z,7.00
2018-12-09T02:25:33.430Z,6.87
2018-12-09T02:28:37.776Z,6.00
2018-12-09T02:31:42.177Z,5.00
2018-12-09T02:34:53.649Z,5.00
2018-12-09T02:37:57.864Z,5.43
2018-12-09T02:41:02.339Z,5.97
2018-12-09T02:44:06.624Z,5.07
2018-12-09T02:47:11.211Z,5.17
2018-12-09T02:50:15.525Z,5.50
2018-12-09T02:53:19.824Z,4.10
2018-12-09T02:56:23.999Z,4.63
2018-12-09T02:59:28.548Z,4.23
2018-12-09T03:02:32.977Z,5.03
2018-12-09T03:05:37.270Z,4.00
2018-12-09T03:08:41.516Z,4.40
2018-12-09T03:11:45.993Z,4.30
2018-12-09T03:14:50.227Z,4.70
2018-12-09T03:17:54.495Z,4.70
2018-12-09T03:20:58.978Z,4.20
2018-12-09T03:24:03.352Z,4.30
2018-12-09T03:27:08.508Z,3.20
2018-12-09T03:30:12.917Z,2.87
2018-12-09T03:33:17.087Z,3.60
2018-12-09T03:36:21.249Z,3.93
2018-12-09T03:39:25.422Z,3.53
2018-12-09T03:42:29.799Z,3.63
2018-12-09T03:45:34.165Z,3.60
2018-12-09T03:48:38.675Z,3.63
2018-12-09T03:51:42.913Z,3.57
2018-12-09T03:54:47.385Z,4.40
2018-12-09T03:57:52.614Z,4.37
2018-12-09T04:00:56.986Z,6.30
2018-12-09T04:04:01.426Z,3.77
2018-12-09T04:07:06.100Z,6.37
2018-12-09T04:10:10.149Z,5.00
2018-12-09T04:13:14.411Z,4.10
2018-12-09T04:16:18.751Z,4.70
2018-12-09T04:19:23.263Z,6.87
2018-12-09T04:22:27.723Z,5.73
2018-12-09T04:25:31.991Z,6.97
2018-12-09T04:28:36.430Z,6.93
2018-12-09T04:31:40.919Z,7.30
2018-12-09T04:34:45.390Z,4.93
2018-12-09T04:37:49.649Z,6.00
2018-12-09T04:40:54.075Z,5.97
2018-12-09T04:43:58.419Z,5.30
2018-12-09T04:47:02.887Z,6.03
2018-12-09T04:50:07.857Z,6.37
2018-12-09T04:53:12.350Z,5.00
2018-12-09T04:56:16.942Z,4.97
2018-12-09T04:59:22.851Z,5.47
2018-12-09T05:02:27.266Z,5.30
2018-12-09T05:05:31.525Z,4.87
2018-12-09T05:08:36.849Z,4.13
2018-12-09T05:11:41.046Z,4.07
2018-12-09T05:14:45.516Z,4.97
2018-12-09T05:17:49.803Z,4.10
2018-12-09T05:20:54.139Z,5.40
2018-12-09T05:23:58.267Z,3.60
2018-12-09T05:27:02.427Z,4.07
2018-12-09T05:30:06.905Z,3.80
2018-12-09T05:33:11.206Z,3.57
2018-12-09T05:36:15.422Z,3.97
2018-12-09T05:39:20.063Z,4.03
2018-12-09T05:42:24.386Z,4.50
2018-12-09T05:45:28.511Z,4.37
2018-12-09T05:48:33.119Z,4.50
2018-12-09T05:51:37.548Z,3.93
2018-12-09T05:54:41.872Z,3.90
2018-12-09T05:57:46.119Z,3.50
2018-12-09T06:00:50.324Z,3.50
2018-12-09T06:03:54.841Z,3.90
2018-12-09T06:06:59.464Z,4.67
2018-12-09T06:10:03.843Z,4.60
2018-12-09T06:13:08.046Z,4.77
2018-12-09T06:16:12.369Z,4.70
2018-12-09T06:19:16.504Z,3.87
2018-12-09T06:22:21.013Z,2.93
2018-12-09T06:25:25.551Z,3.60
2018-12-09T06:28:29.845Z,3.77
2018-12-09T06:31:34.045Z,3.50
2018-12-09T06:34:38.460Z,3.93
2018-12-09T06:37:42.836Z,4.17
2018-12-09T06:40:46.919Z,3.40
2018-12-09T06:43:51.036Z,3.40
2018-12-09T06:46:55.435Z,3.50
2018-12-09T06:49:59.965Z,3.10
2018-12-09T06:53:04.289Z,3.90
2018-12-09T06:56:08.612Z,4.13
2018-12-09T06:59:13.039Z,3.90
2018-12-09T07:02:18.128Z,3.70
2018-12-09T07:05:22.516Z,3.90
2018-12-09T07:08:26.913Z,3.83
2018-12-09T07:11:31.243Z,3.93
2018-12-09T07:14:35.519Z,3.60
2018-12-09T07:17:39.713Z,3.30
2018-12-09T07:20:44.030Z,4.40
2018-12-09T07:23:48.437Z,4.93
2018-12-09T07:26:52.461Z,4.47
2018-12-09T07:30:02.083Z,5.00
2018-12-09T07:33:03.286Z,5.53
2018-12-09T07:36:07.846Z,5.40
2018-12-09T07:39:12.176Z,4.00
2018-12-09T07:42:16.402Z,3.70
2018-12-09T07:45:20.752Z,3.20
2018-12-09T07:48:26.091Z,3.12
2018-12-09T07:51:30.457Z,3.10
2018-12-09T07:54:34.935Z,2.97
2018-12-09T07:57:45.454Z,2.90
2018-12-09T08:00:49.750Z,2.87
2018-12-09T08:03:53.620Z,3.33
2018-12-09T08:06:57.484Z,3.50
2018-12-09T08:10:01.385Z,3.20
2018-12-09T08:13:05.348Z,2.90
2018-12-09T08:16:09.426Z,4.00
2018-12-09T08:19:13.360Z,3.20
2018-12-09T08:22:17.785Z,3.50
2018-12-09T08:25:21.969Z,3.90
2018-12-09T08:28:26.335Z,3.97
2018-12-09T08:31:30.623Z,3.57
2018-12-09T08:34:34.843Z,3.40
2018-12-09T08:37:39.002Z,3.60
2018-12-09T08:40:50.507Z,3.50
2018-12-09T08:44:10.747Z,3.67
2018-12-09T08:47:15.461Z,3.37
2018-12-09T08:50:19.850Z,4.43
2018-12-09T08:53:24.166Z,3.67
2018-12-09T08:56:28.538Z,3.87
2018-12-09T08:59:32.771Z,4.90
2018-12-09T09:02:37.236Z,6.60
2018-12-09T09:05:41.460Z,7.47
2018-12-09T09:08:45.553Z,5.17
2018-12-09T09:11:49.839Z,6.50
2018-12-09T09:14:54.212Z,7.00
2018-12-09T09:17:58.811Z,12.97
2018-12-09T09:21:03.163Z,12.37
2018-12-09T09:24:07.435Z,14.53
2018-12-09T09:27:11.867Z,14.30
2018-12-09T09:30:17.260Z,13.60
2018-12-09T09:33:21.537Z,11.23
2018-12-09T09:36:25.731Z,24.83
2018-12-09T09:39:30.091Z,5.23
2018-12-09T09:42:34.500Z,5.00
2018-12-09T09:45:38.931Z,4.70
2018-12-09T09:48:43.288Z,3.90
2018-12-09T09:51:47.731Z,3.23
2018-12-09T09:54:52.528Z,3.40
2018-12-09T09:57:56.986Z,3.23
2018-12-09T10:01:01.454Z,3.67
2018-12-09T10:04:05.835Z,3.27
2018-12-09T10:07:10.107Z,3.80
2018-12-09T10:10:14.519Z,4.70
2018-12-09T10:13:19.022Z,3.67
2018-12-09T10:16:23.498Z,3.20
2018-12-09T10:19:27.844Z,2.70
2018-12-09T10:22:32.188Z,3.30
2018-12-09T10:25:36.270Z,8.17
2018-12-09T10:28:40.572Z,7.63
2018-12-09T10:31:44.840Z,5.60
2018-12-09T10:34:49.160Z,4.20
2018-12-09T10:37:53.332Z,3.80
2018-12-09T10:40:57.936Z,4.47
2018-12-09T10:44:02.322Z,4.33
2018-12-09T10:47:06.898Z,4.40
2018-12-09T10:50:11.353Z,2.50
2018-12-09T10:53:15.596Z,3.43
2018-12-09T10:56:19.931Z,3.40
2018-12-09T10:59:24.313Z,3.37
2018-12-09T11:02:28.639Z,9.40
2018-12-09T11:05:33.012Z,5.23
2018-12-09T11:08:37.152Z,7.63
2018-12-09T11:11:41.629Z,9.80
2018-12-09T11:14:46.105Z,9.97
2018-12-09T11:17:50.194Z,10.23
2018-12-09T11:20:54.581Z,10.17
2018-12-09T11:23:59.083Z,10.97
2018-12-09T11:27:03.341Z,77.80
2018-12-09T11:30:08.528Z,19.47
2018-12-09T11:33:12.948Z,13.80
2018-12-09T11:36:17.126Z,12.03
2018-12-09T11:39:21.074Z,13.00
2018-12-09T11:42:25.037Z,16.10
2018-12-09T11:45:29.140Z,12.93
2018-12-09T11:48:33.669Z,13.00
2018-12-09T11:51:37.980Z,13.53
2018-12-09T11:54:42.547Z,15.20
2018-12-09T11:57:46.819Z,13.77
2018-12-09T12:00:51.191Z,13.87
2018-12-09T12:03:55.719Z,10.10
2018-12-09T12:06:59.921Z,8.30
2018-12-09T12:10:04.626Z,10.00
2018-12-09T12:13:09.112Z,18.03
2018-12-09T12:16:13.391Z,10.57
2018-12-09T12:19:17.753Z,11.90
2018-12-09T12:22:21.918Z,11.57
2018-12-09T12:25:26.204Z,9.80
2018-12-09T12:28:30.975Z,11.20
2018-12-09T12:31:35.315Z,11.70
2018-12-09T12:34:39.714Z,10.70
2018-12-09T12:37:44.072Z,10.80
2018-12-09T12:40:48.844Z,11.57
2018-12-09T12:43:53.175Z,8.77
2018-12-09T12:46:57.672Z,8.00
2018-12-09T12:50:02.025Z,9.03
2018-12-09T12:53:06.495Z,9.93
2018-12-09T12:56:10.908Z,10.93
2018-12-09T12:59:15.213Z,10.20
2018-12-09T13:02:19.676Z,10.70
2018-12-09T13:05:23.982Z,10.23
2018-12-09T13:08:28.511Z,11.80
2018-12-09T13:11:32.879Z,9.53
2018-12-09T13:14:37.665Z,9.20
2018-12-09T13:17:42.029Z,9.90
2018-12-09T13:20:46.247Z,11.67
2018-12-09T13:23:50.723Z,13.17
2018-12-09T13:26:54.858Z,12.90
2018-12-09T13:29:59.018Z,13.30
2018-12-09T13:33:03.236Z,12.40
2018-12-09T13:36:07.722Z,11.20
2018-12-09T13:39:12.048Z,8.37
2018-12-09T13:42:16.327Z,8.97
2018-12-09T13:45:20.705Z,10.53
2018-12-09T13:48:24.987Z,10.00
2018-12-09T13:51:29.525Z,9.10
2018-12-09T13:54:33.809Z,9.00
2018-12-09T13:57:38.385Z,10.87
2018-12-09T14:00:42.727Z,10.43
2018-12-09T14:03:47.157Z,11.53
2018-12-09T14:06:51.347Z,13.00
2018-12-09T14:09:55.683Z,13.33
2018-12-09T14:13:00.213Z,10.87
2018-12-09T14:16:04.567Z,11.10
2018-12-09T14:19:08.844Z,9.47
2018-12-09T14:22:13.324Z,9.70
2018-12-09T14:25:17.869Z,10.70
2018-12-09T14:28:22.349Z,12.10
2018-12-09T14:31:28.396Z,11.20
2018-12-09T14:34:32.776Z,9.10
2018-12-09T14:37:37.204Z,8.73
2018-12-09T14:40:41.595Z,19.80
2018-12-09T14:43:46.049Z,11.57
2018-12-09T14:46:50.536Z,9.60
2018-12-09T14:49:54.780Z,9.47
2018-12-09T14:52:59.131Z,10.97
2018-12-09T14:56:03.487Z,11.13
2018-12-09T14:59:07.846Z,10.37
2018-12-09T15:02:12.071Z,10.93
2018-12-09T15:05:16.364Z,13.57
2018-12-09T15:08:20.935Z,10.20
2018-12-09T15:11:25.405Z,10.67
2018-12-09T15:14:29.724Z,9.17
2018-12-09T15:17:34.197Z,9.27
2018-12-09T15:20:38.665Z,23.77
2018-12-09T15:23:42.941Z,26.57
2018-12-09T15:26:47.181Z,19.10
2018-12-09T15:29:51.906Z,20.47
2018-12-09T15:32:55.997Z,16.60
2018-12-09T15:36:00.220Z,17.97
2018-12-09T15:39:06.874Z,19.47
2018-12-09T15:42:11.168Z,15.07
2018-12-09T15:45:16.038Z,11.93
2018-12-09T15:48:20.373Z,12.57
2018-12-09T15:51:24.718Z,11.40
2018-12-09T15:54:29.904Z,11.70
2018-12-09T15:57:34.214Z,10.70
2018-12-09T16:00:44.563Z,9.57
2018-12-09T16:03:48.905Z,10.67
2018-12-09T16:06:53.517Z,10.37
2018-12-09T16:09:57.789Z,9.70
2018-12-09T16:13:02.272Z,10.60
2018-12-09T16:16:06.888Z,8.93
2018-12-09T16:19:11.215Z,19.13
2018-12-09T16:22:15.545Z,15.93
2018-12-09T16:25:20.004Z,20.97
2018-12-09T16:28:30.855Z,18.30
2018-12-09T16:31:35.308Z,14.77
2018-12-09T16:34:39.822Z,11.27
2018-12-09T16:37:44.223Z,10.13
2018-12-09T16:40:48.704Z,15.97
2018-12-09T16:43:52.918Z,13.97
2018-12-09T16:46:57.395Z,14.40
2018-12-09T16:50:01.940Z,14.97
2018-12-09T16:53:06.352Z,13.13
2018-12-09T16:56:10.718Z,15.03
2018-12-09T16:59:15.045Z,13.00
2018-12-09T17:02:19.468Z,15.00
2018-12-09T17:05:23.922Z,13.37
2018-12-09T17:08:28.003Z,16.33
2018-12-09T17:11:32.439Z,19.17
2018-12-09T17:14:36.593Z,18.90
2018-12-09T17:17:41.063Z,25.83
2018-12-09T17:20:46.201Z,21.83
2018-12-09T17:23:50.716Z,25.53
2018-12-09T17:26:55.225Z,23.13
2018-12-09T17:29:59.580Z,21.77
2018-12-09T17:33:05.003Z,21.70
2018-12-09T17:36:09.349Z,16.67
2018-12-09T17:39:13.851Z,17.00
2018-12-09T17:42:18.063Z,13.77
2018-12-09T17:45:22.220Z,13.20
2018-12-09T17:48:26.540Z,13.03
2018-12-09T17:51:30.867Z,13.83
2018-12-09T17:54:35.283Z,13.93
2018-12-09T17:57:39.473Z,12.13
2018-12-09T18:00:43.881Z,13.27
2018-12-09T18:03:48.024Z,12.00
2018-12-09T18:06:52.376Z,12.83
2018-12-09T18:09:56.670Z,12.97
2018-12-09T18:13:01.356Z,11.80
2018-12-09T18:16:05.868Z,10.17
2018-12-09T18:19:10.273Z,10.30
2018-12-09T18:22:15.379Z,9.20
2018-12-09T18:25:20.017Z,10.97
2018-12-09T18:28:25.378Z,11.27
2018-12-09T18:31:29.808Z,11.10
2018-12-09T18:34:34.546Z,13.63
2018-12-09T18:37:39.707Z,13.80
2018-12-09T18:40:44.015Z,18.03
2018-12-09T18:43:52.449Z,14.10
2018-12-09T18:46:56.742Z,14.07
2018-12-09T18:50:01.072Z,12.70
2018-12-09T18:53:05.326Z,12.50
2018-12-09T18:56:09.931Z,14.00
2018-12-09T18:59:14.170Z,13.90
2018-12-09T19:02:18.566Z,13.40
2018-12-09T19:05:23.048Z,11.20
2018-12-09T19:08:28.054Z,11.20
2018-12-09T19:11:33.977Z,12.03
2018-12-09T19:14:38.266Z,12.60
2018-12-09T19:17:42.748Z,14.23
2018-12-09T19:20:47.144Z,12.73
2018-12-09T19:23:51.411Z,13.10
2018-12-09T19:26:55.895Z,14.10
2018-12-09T19:30:00.453Z,12.87
2018-12-09T19:33:04.972Z,12.87
2018-12-09T19:36:09.444Z,12.63
2018-12-09T19:39:13.915Z,10.97
2018-12-09T19:42:18.166Z,10.67
2018-12-09T19:45:23.405Z,10.70
2018-12-09T19:48:27.928Z,11.37
2018-12-09T19:51:32.302Z,9.57
2018-12-09T19:54:36.782Z,10.43
2018-12-09T19:57:41.162Z,11.93
2018-12-09T20:00:45.444Z,11.37
2018-12-09T20:03:50.097Z,10.17
2018-12-09T20:06:54.414Z,10.50
2018-12-09T20:09:58.691Z,11.30
2018-12-09T20:13:03.113Z,13.70
2018-12-09T20:16:07.563Z,12.70
2018-12-09T20:19:11.857Z,15.40
2018-12-09T20:22:16.382Z,16.27
2018-12-09T20:25:20.893Z,15.50
2018-12-09T20:28:25.227Z,15.17
2018-12-09T20:31:29.474Z,16.50
2018-12-09T20:34:33.877Z,16.70
2018-12-09T20:37:38.145Z,15.80
2018-12-09T20:40:42.448Z,12.63
2018-12-09T20:43:46.768Z,13.00
2018-12-09T20:46:51.159Z,11.23
2018-12-09T20:49:55.594Z,12.50
2018-12-09T20:53:00.776Z,11.50
2018-12-09T20:56:05.552Z,9.90
2018-12-09T20:59:09.841Z,10.07
2018-12-09T21:02:14.265Z,10.60
2018-12-09T21:05:18.974Z,9.80
2018-12-09T21:08:24.144Z,8.20
2018-12-09T21:11:28.528Z,10.47
2018-12-09T21:15:53.631Z,11.13
2018-12-09T21:18:58.063Z,9.20
2018-12-09T21:22:02.620Z,9.60
2018-12-09T21:25:07.193Z,10.00
2018-12-09T21:28:11.582Z,10.37
2018-12-09T21:31:15.870Z,11.03
2018-12-09T21:34:21.196Z,9.90
2018-12-09T21:37:25.488Z,9.50
2018-12-09T21:40:29.846Z,12.40
2018-12-09T21:43:34.660Z,10.78
2018-12-09T21:46:38.994Z,10.60
2018-12-09T21:49:43.198Z,9.80
2018-12-09T21:52:47.617Z,10.30
2018-12-09T21:55:52.005Z,11.60
2018-12-09T21:58:56.596Z,9.97
2018-12-09T22:02:01.072Z,10.70
2018-12-09T22:05:05.933Z,10.43
2018-12-09T22:08:10.168Z,9.23
2018-12-09T22:11:14.492Z,9.37
2018-12-09T22:14:19.106Z,11.00
2018-12-09T22:17:23.472Z,12.13
2018-12-09T22:20:28.023Z,11.80
2018-12-09T22:23:32.373Z,11.80
2018-12-09T22:26:36.692Z,9.50
2018-12-09T22:29:41.098Z,9.67
2018-12-09T22:32:45.339Z,9.60
2018-12-09T22:35:50.001Z,9.70
2018-12-09T22:38:54.323Z,9.47
2018-12-09T22:41:58.692Z,10.53
2018-12-09T22:45:03.137Z,11.70
2018-12-09T22:48:07.529Z,11.90
2018-12-09T22:51:12.497Z,15.23
2018-12-09T22:54:18.028Z,13.50
2018-12-09T22:57:22.551Z,10.30
2018-12-09T23:00:29.789Z,9.60
2018-12-09T23:03:34.264Z,12.17
2018-12-09T23:06:38.763Z,10.43
2018-12-09T23:09:43.054Z,9.23
2018-12-09T23:12:47.555Z,9.00
2018-12-09T23:15:51.958Z,8.03
2018-12-09T23:18:56.528Z,7.10
2018-12-09T23:22:01.250Z,6.53
2018-12-09T23:25:05.814Z,7.37
2018-12-09T23:28:10.300Z,6.80
2018-12-09T23:31:14.636Z,6.40
2018-12-09T23:34:19.083Z,5.97
2018-12-09T23:37:23.316Z,7.00
2018-12-09T23:40:27.507Z,7.17
2018-12-09T23:43:31.854Z,6.70
2018-12-09T23:52:09.266Z,5.60
2018-12-09T23:55:13.672Z,6.53
2018-12-09T23:58:18.150Z,7.73
